sensor_id;sensor_type;location;lat;lon;timestamp;P1;durP1;ratioP1;P2;durP2;ratioP2
62997;SDS011;55949;52.590;7.330;2022-12-07T00:00:44;13.20;;;6.20;;
62997;SDS011;55949;52.590;7.330;2022-12-07T00:01:45;10.35;;;6.78;;
62997;SDS011;55949;52.590;7.330;2022-12-07T00:02:46;17.40;;;7.80;;
62997;SDS011;55949;52.590;7.330;2022-12-07T00:03:48;13.75;;;7.22;;
62997;SDS011;55949;52.590;7.330;2022-12-07T00:04:51;11.52;;;6.88;;
62997;SDS011;55949;52.590;7.330;2022-12-07T00:05:51;11.75;;;6.65;;
62997;SDS011;55949;52.590;7.330;2022-12-07T00:06:52;10.70;;;6.15;;
62997;SDS011;55949;52.590;7.330;2022-12-07T00:07:53;12.38;;;7.05;;
62997;SDS011;55949;52.590;7.330;2022-12-07T00:08:54;10.65;;;6.47;;
62997;SDS011;55949;52.590;7.330;2022-12-07T00:09:55;9.70;;;5.05;;
62997;SDS011;55949;52.590;7.330;2022-12-07T00:10:59;10.60;;;5.93;;
62997;SDS011;55949;52.590;7.330;2022-12-07T00:12:05;9.95;;;6.07;;
62997;SDS011;55949;52.590;7.330;2022-12-07T00:13:06;12.38;;;6.15;;
62997;SDS011;55949;52.590;7.330;2022-12-07T00:14:07;11.85;;;4.95;;
62997;SDS011;55949;52.590;7.330;2022-12-07T00:15:11;11.43;;;5.78;;
62997;SDS011;55949;52.590;7.330;2022-12-07T00:16:15;14.48;;;6.75;;
62997;SDS011;55949;52.590;7.330;2022-12-07T00:17:18;10.25;;;5.93;;
62997;SDS011;55949;52.590;7.330;2022-12-07T00:18:18;14.07;;;6.35;;
62997;SDS011;55949;52.590;7.330;2022-12-07T00:19:19;14.85;;;6.13;;
62997;SDS011;55949;52.590;7.330;2022-12-07T00:20:20;14.13;;;6.43;;
62997;SDS011;55949;52.590;7.330;2022-12-07T00:21:22;11.80;;;4.85;;
62997;SDS011;55949;52.590;7.330;2022-12-07T00:22:27;12.00;;;4.80;;
62997;SDS011;55949;52.590;7.330;2022-12-07T00:23:28;13.30;;;6.07;;
62997;SDS011;55949;52.590;7.330;2022-12-07T00:24:29;10.75;;;5.90;;
62997;SDS011;55949;52.590;7.330;2022-12-07T00:25:29;9.38;;;5.13;;
62997;SDS011;55949;52.590;7.330;2022-12-07T00:26:34;10.18;;;5.25;;
62997;SDS011;55949;52.590;7.330;2022-12-07T00:27:37;10.52;;;4.80;;
62997;SDS011;55949;52.590;7.330;2022-12-07T00:28:37;8.98;;;4.10;;
62997;SDS011;55949;52.590;7.330;2022-12-07T00:29:38;14.88;;;5.57;;
62997;SDS011;55949;52.590;7.330;2022-12-07T00:30:39;5.18;;;2.60;;
62997;SDS011;55949;52.590;7.330;2022-12-07T00:31:40;9.88;;;5.80;;
62997;SDS011;55949;52.590;7.330;2022-12-07T00:32:40;12.52;;;6.20;;
62997;SDS011;55949;52.590;7.330;2022-12-07T00:33:41;13.02;;;5.85;;
62997;SDS011;55949;52.590;7.330;2022-12-07T00:34:42;10.27;;;4.90;;
62997;SDS011;55949;52.590;7.330;2022-12-07T00:35:43;9.32;;;4.70;;
62997;SDS011;55949;52.590;7.330;2022-12-07T00:36:43;12.70;;;5.60;;
62997;SDS011;55949;52.590;7.330;2022-12-07T00:37:45;8.63;;;4.35;;
62997;SDS011;55949;52.590;7.330;2022-12-07T00:38:45;8.60;;;4.65;;
62997;SDS011;55949;52.590;7.330;2022-12-07T00:39:46;12.60;;;5.05;;
62997;SDS011;55949;52.590;7.330;2022-12-07T00:40:53;8.40;;;3.88;;
62997;SDS011;55949;52.590;7.330;2022-12-07T00:41:55;11.95;;;4.50;;
62997;SDS011;55949;52.590;7.330;2022-12-07T00:42:55;8.43;;;3.65;;
62997;SDS011;55949;52.590;7.330;2022-12-07T00:43:56;10.60;;;4.80;;
62997;SDS011;55949;52.590;7.330;2022-12-07T00:44:57;9.75;;;5.10;;
62997;SDS011;55949;52.590;7.330;2022-12-07T00:45:58;6.15;;;2.50;;
62997;SDS011;55949;52.590;7.330;2022-12-07T00:46:58;10.02;;;4.60;;
62997;SDS011;55949;52.590;7.330;2022-12-07T00:48:00;7.05;;;3.42;;
62997;SDS011;55949;52.590;7.330;2022-12-07T00:49:01;10.35;;;3.28;;
62997;SDS011;55949;52.590;7.330;2022-12-07T00:50:02;8.73;;;3.35;;
62997;SDS011;55949;52.590;7.330;2022-12-07T00:51:03;7.57;;;2.88;;
62997;SDS011;55949;52.590;7.330;2022-12-07T00:52:04;10.30;;;4.07;;
62997;SDS011;55949;52.590;7.330;2022-12-07T00:53:05;11.35;;;4.07;;
62997;SDS011;55949;52.590;7.330;2022-12-07T00:54:05;7.00;;;3.08;;
62997;SDS011;55949;52.590;7.330;2022-12-07T00:55:06;7.65;;;2.67;;
62997;SDS011;55949;52.590;7.330;2022-12-07T00:56:08;12.43;;;3.13;;
62997;SDS011;55949;52.590;7.330;2022-12-07T00:57:11;4.90;;;2.97;;
62997;SDS011;55949;52.590;7.330;2022-12-07T00:58:12;9.93;;;2.92;;
62997;SDS011;55949;52.590;7.330;2022-12-07T00:59:13;8.40;;;2.80;;
62997;SDS011;55949;52.590;7.330;2022-12-07T01:00:15;5.43;;;2.85;;
62997;SDS011;55949;52.590;7.330;2022-12-07T01:01:15;10.82;;;2.80;;
62997;SDS011;55949;52.590;7.330;2022-12-07T01:02:16;4.60;;;2.08;;
62997;SDS011;55949;52.590;7.330;2022-12-07T01:03:17;7.38;;;2.67;;
62997;SDS011;55949;52.590;7.330;2022-12-07T01:04:17;10.00;;;2.33;;
62997;SDS011;55949;52.590;7.330;2022-12-07T01:05:18;7.28;;;2.75;;
62997;SDS011;55949;52.590;7.330;2022-12-07T01:06:20;6.13;;;2.80;;
62997;SDS011;55949;52.590;7.330;2022-12-07T01:07:21;7.72;;;2.22;;
62997;SDS011;55949;52.590;7.330;2022-12-07T01:08:23;7.40;;;2.63;;
62997;SDS011;55949;52.590;7.330;2022-12-07T01:09:25;7.00;;;2.67;;
62997;SDS011;55949;52.590;7.330;2022-12-07T01:10:26;5.80;;;2.50;;
62997;SDS011;55949;52.590;7.330;2022-12-07T01:11:28;4.35;;;1.63;;
62997;SDS011;55949;52.590;7.330;2022-12-07T01:12:29;5.38;;;2.78;;
62997;SDS011;55949;52.590;7.330;2022-12-07T01:13:30;5.72;;;2.13;;
62997;SDS011;55949;52.590;7.330;2022-12-07T01:14:32;5.25;;;2.22;;
62997;SDS011;55949;52.590;7.330;2022-12-07T01:15:33;4.00;;;2.30;;
62997;SDS011;55949;52.590;7.330;2022-12-07T01:16:33;6.25;;;1.42;;
62997;SDS011;55949;52.590;7.330;2022-12-07T01:17:34;3.35;;;1.55;;
62997;SDS011;55949;52.590;7.330;2022-12-07T01:18:35;6.20;;;2.80;;
62997;SDS011;55949;52.590;7.330;2022-12-07T01:19:37;7.47;;;2.10;;
62997;SDS011;55949;52.590;7.330;2022-12-07T01:20:37;5.90;;;1.85;;
62997;SDS011;55949;52.590;7.330;2022-12-07T01:21:38;5.45;;;1.70;;
62997;SDS011;55949;52.590;7.330;2022-12-07T01:22:39;7.22;;;1.90;;
62997;SDS011;55949;52.590;7.330;2022-12-07T01:23:41;4.07;;;1.80;;
62997;SDS011;55949;52.590;7.330;2022-12-07T01:24:42;8.90;;;1.85;;
62997;SDS011;55949;52.590;7.330;2022-12-07T01:25:42;6.22;;;1.67;;
62997;SDS011;55949;52.590;7.330;2022-12-07T01:26:43;7.38;;;1.70;;
62997;SDS011;55949;52.590;7.330;2022-12-07T01:27:44;6.38;;;1.65;;
62997;SDS011;55949;52.590;7.330;2022-12-07T01:28:44;2.95;;;0.98;;
62997;SDS011;55949;52.590;7.330;2022-12-07T01:29:45;1.67;;;0.70;;
62997;SDS011;55949;52.590;7.330;2022-12-07T01:30:54;9.02;;;1.98;;
62997;SDS011;55949;52.590;7.330;2022-12-07T01:32:15;5.93;;;1.30;;
62997;SDS011;55949;52.590;7.330;2022-12-07T01:33:15;9.63;;;1.65;;
62997;SDS011;55949;52.590;7.330;2022-12-07T01:34:16;4.10;;;1.15;;
62997;SDS011;55949;52.590;7.330;2022-12-07T01:35:17;2.60;;;0.93;;
62997;SDS011;55949;52.590;7.330;2022-12-07T01:36:19;6.00;;;1.80;;
62997;SDS011;55949;52.590;7.330;2022-12-07T01:37:21;4.75;;;1.08;;
62997;SDS011;55949;52.590;7.330;2022-12-07T01:38:22;4.63;;;1.13;;
62997;SDS011;55949;52.590;7.330;2022-12-07T01:39:23;5.88;;;1.50;;
62997;SDS011;55949;52.590;7.330;2022-12-07T01:40:24;8.90;;;1.50;;
62997;SDS011;55949;52.590;7.330;2022-12-07T01:41:26;8.85;;;1.50;;
62997;SDS011;55949;52.590;7.330;2022-12-07T01:42:31;8.50;;;1.63;;
62997;SDS011;55949;52.590;7.330;2022-12-07T01:43:33;8.20;;;1.20;;
62997;SDS011;55949;52.590;7.330;2022-12-07T01:45:14;6.88;;;1.58;;
62997;SDS011;55949;52.590;7.330;2022-12-07T01:46:13;4.22;;;1.42;;
62997;SDS011;55949;52.590;7.330;2022-12-07T01:47:14;6.07;;;1.05;;
62997;SDS011;55949;52.590;7.330;2022-12-07T01:48:15;6.15;;;1.63;;
62997;SDS011;55949;52.590;7.330;2022-12-07T01:50:43;5.80;;;1.38;;
62997;SDS011;55949;52.590;7.330;2022-12-07T01:51:45;2.35;;;1.05;;
62997;SDS011;55949;52.590;7.330;2022-12-07T01:52:48;7.32;;;1.52;;
62997;SDS011;55949;52.590;7.330;2022-12-07T01:53:51;5.90;;;1.50;;
62997;SDS011;55949;52.590;7.330;2022-12-07T01:54:52;8.68;;;1.38;;
62997;SDS011;55949;52.590;7.330;2022-12-07T01:55:56;2.13;;;1.08;;
62997;SDS011;55949;52.590;7.330;2022-12-07T01:56:59;4.43;;;1.02;;
62997;SDS011;55949;52.590;7.330;2022-12-07T01:58:00;3.83;;;0.85;;
62997;SDS011;55949;52.590;7.330;2022-12-07T01:59:00;1.35;;;0.55;;
62997;SDS011;55949;52.590;7.330;2022-12-07T02:00:02;4.93;;;1.30;;
62997;SDS011;55949;52.590;7.330;2022-12-07T02:01:05;3.42;;;1.13;;
62997;SDS011;55949;52.590;7.330;2022-12-07T02:02:07;6.55;;;1.33;;
62997;SDS011;55949;52.590;7.330;2022-12-07T02:03:16;5.47;;;1.20;;
62997;SDS011;55949;52.590;7.330;2022-12-07T02:04:21;4.22;;;0.93;;
62997;SDS011;55949;52.590;7.330;2022-12-07T02:05:23;3.63;;;0.90;;
62997;SDS011;55949;52.590;7.330;2022-12-07T02:06:25;3.22;;;0.80;;
62997;SDS011;55949;52.590;7.330;2022-12-07T02:07:26;8.77;;;1.23;;
62997;SDS011;55949;52.590;7.330;2022-12-07T02:08:28;2.80;;;1.02;;
62997;SDS011;55949;52.590;7.330;2022-12-07T02:09:29;2.20;;;0.68;;
62997;SDS011;55949;52.590;7.330;2022-12-07T02:10:30;3.90;;;0.98;;
62997;SDS011;55949;52.590;7.330;2022-12-07T02:11:31;3.95;;;1.00;;
62997;SDS011;55949;52.590;7.330;2022-12-07T02:12:32;3.60;;;0.75;;
62997;SDS011;55949;52.590;7.330;2022-12-07T02:13:33;5.53;;;1.10;;
62997;SDS011;55949;52.590;7.330;2022-12-07T02:14:35;1.88;;;1.40;;
62997;SDS011;55949;52.590;7.330;2022-12-07T02:20:30;2.58;;;0.95;;
62997;SDS011;55949;52.590;7.330;2022-12-07T02:21:55;3.08;;;1.10;;
62997;SDS011;55949;52.590;7.330;2022-12-07T02:29:18;2.80;;;0.82;;
62997;SDS011;55949;52.590;7.330;2022-12-07T02:30:35;6.10;;;1.02;;
62997;SDS011;55949;52.590;7.330;2022-12-07T02:31:46;3.20;;;0.77;;
62997;SDS011;55949;52.590;7.330;2022-12-07T02:33:13;3.58;;;0.70;;
62997;SDS011;55949;52.590;7.330;2022-12-07T02:34:23;3.08;;;1.00;;
62997;SDS011;55949;52.590;7.330;2022-12-07T02:35:41;4.93;;;0.82;;
62997;SDS011;55949;52.590;7.330;2022-12-07T02:37:01;1.77;;;0.82;;
62997;SDS011;55949;52.590;7.330;2022-12-07T02:38:16;5.63;;;0.90;;
62997;SDS011;55949;52.590;7.330;2022-12-07T02:40:38;4.90;;;1.20;;
62997;SDS011;55949;52.590;7.330;2022-12-07T02:41:43;3.80;;;0.65;;
62997;SDS011;55949;52.590;7.330;2022-12-07T02:42:53;12.40;;;2.03;;
62997;SDS011;55949;52.590;7.330;2022-12-07T02:44:01;6.68;;;0.93;;
62997;SDS011;55949;52.590;7.330;2022-12-07T02:45:05;3.67;;;0.63;;
62997;SDS011;55949;52.590;7.330;2022-12-07T02:46:10;6.72;;;0.93;;
62997;SDS011;55949;52.590;7.330;2022-12-07T02:47:20;4.32;;;0.80;;
62997;SDS011;55949;52.590;7.330;2022-12-07T02:48:23;3.45;;;1.15;;
62997;SDS011;55949;52.590;7.330;2022-12-07T02:49:27;1.00;;;0.65;;
62997;SDS011;55949;52.590;7.330;2022-12-07T02:50:30;1.00;;;0.52;;
62997;SDS011;55949;52.590;7.330;2022-12-07T02:51:31;2.97;;;0.85;;
62997;SDS011;55949;52.590;7.330;2022-12-07T02:52:33;3.13;;;0.68;;
62997;SDS011;55949;52.590;7.330;2022-12-07T02:53:38;5.68;;;0.60;;
62997;SDS011;55949;52.590;7.330;2022-12-07T02:54:43;8.15;;;1.35;;
62997;SDS011;55949;52.590;7.330;2022-12-07T02:55:43;4.03;;;0.50;;
62997;SDS011;55949;52.590;7.330;2022-12-07T03:00:09;3.80;;;0.60;;
62997;SDS011;55949;52.590;7.330;2022-12-07T03:03:28;4.25;;;0.70;;
62997;SDS011;55949;52.590;7.330;2022-12-07T03:07:00;3.50;;;1.23;;
62997;SDS011;55949;52.590;7.330;2022-12-07T03:11:21;0.60;;;0.30;;
62997;SDS011;55949;52.590;7.330;2022-12-07T03:15:07;3.20;;;0.73;;
62997;SDS011;55949;52.590;7.330;2022-12-07T03:16:15;3.85;;;0.63;;
62997;SDS011;55949;52.590;7.330;2022-12-07T03:17:18;6.30;;;0.68;;
62997;SDS011;55949;52.590;7.330;2022-12-07T03:18:25;2.63;;;0.75;;
62997;SDS011;55949;52.590;7.330;2022-12-07T03:19:29;10.35;;;1.02;;
62997;SDS011;55949;52.590;7.330;2022-12-07T03:20:32;4.32;;;1.25;;
62997;SDS011;55949;52.590;7.330;2022-12-07T03:21:38;2.60;;;1.13;;
62997;SDS011;55949;52.590;7.330;2022-12-07T03:22:41;3.42;;;0.68;;
62997;SDS011;55949;52.590;7.330;2022-12-07T03:23:45;5.38;;;1.13;;
62997;SDS011;55949;52.590;7.330;2022-12-07T03:24:51;1.10;;;0.40;;
62997;SDS011;55949;52.590;7.330;2022-12-07T03:25:58;0.85;;;0.32;;
62997;SDS011;55949;52.590;7.330;2022-12-07T03:27:06;4.50;;;1.10;;
62997;SDS011;55949;52.590;7.330;2022-12-07T03:28:11;4.10;;;0.95;;
62997;SDS011;55949;52.590;7.330;2022-12-07T03:29:20;4.72;;;0.77;;
62997;SDS011;55949;52.590;7.330;2022-12-07T03:30:30;3.72;;;0.80;;
62997;SDS011;55949;52.590;7.330;2022-12-07T03:31:40;2.30;;;0.68;;
62997;SDS011;55949;52.590;7.330;2022-12-07T03:32:45;1.70;;;0.63;;
62997;SDS011;55949;52.590;7.330;2022-12-07T03:35:19;6.15;;;0.82;;
62997;SDS011;55949;52.590;7.330;2022-12-07T03:37:37;2.97;;;0.47;;
62997;SDS011;55949;52.590;7.330;2022-12-07T03:39:09;5.40;;;0.85;;
62997;SDS011;55949;52.590;7.330;2022-12-07T03:40:19;3.97;;;0.65;;
62997;SDS011;55949;52.590;7.330;2022-12-07T03:41:32;7.18;;;1.33;;
62997;SDS011;55949;52.590;7.330;2022-12-07T03:42:37;4.05;;;0.47;;
62997;SDS011;55949;52.590;7.330;2022-12-07T03:43:38;4.53;;;0.73;;
62997;SDS011;55949;52.590;7.330;2022-12-07T03:44:40;4.88;;;1.25;;
62997;SDS011;55949;52.590;7.330;2022-12-07T03:45:44;2.63;;;0.57;;
62997;SDS011;55949;52.590;7.330;2022-12-07T03:46:59;1.65;;;1.17;;
62997;SDS011;55949;52.590;7.330;2022-12-07T03:48:18;5.35;;;0.88;;
62997;SDS011;55949;52.590;7.330;2022-12-07T03:50:55;2.73;;;0.70;;
62997;SDS011;55949;52.590;7.330;2022-12-07T03:52:12;4.43;;;0.80;;
62997;SDS011;55949;52.590;7.330;2022-12-07T03:53:24;2.00;;;0.82;;
62997;SDS011;55949;52.590;7.330;2022-12-07T03:54:53;5.47;;;0.90;;
62997;SDS011;55949;52.590;7.330;2022-12-07T03:56:11;2.83;;;0.75;;
62997;SDS011;55949;52.590;7.330;2022-12-07T03:57:12;4.90;;;0.75;;
62997;SDS011;55949;52.590;7.330;2022-12-07T03:58:15;2.88;;;0.65;;
62997;SDS011;55949;52.590;7.330;2022-12-07T03:59:18;5.10;;;1.25;;
62997;SDS011;55949;52.590;7.330;2022-12-07T04:00:20;4.57;;;0.57;;
62997;SDS011;55949;52.590;7.330;2022-12-07T04:01:22;2.63;;;0.98;;
62997;SDS011;55949;52.590;7.330;2022-12-07T04:02:24;0.80;;;0.65;;
62997;SDS011;55949;52.590;7.330;2022-12-07T04:03:26;2.35;;;1.50;;
62997;SDS011;55949;52.590;7.330;2022-12-07T04:04:27;1.58;;;1.10;;
62997;SDS011;55949;52.590;7.330;2022-12-07T04:05:28;5.80;;;0.98;;
62997;SDS011;55949;52.590;7.330;2022-12-07T04:06:29;3.88;;;0.60;;
62997;SDS011;55949;52.590;7.330;2022-12-07T04:07:30;3.08;;;0.63;;
62997;SDS011;55949;52.590;7.330;2022-12-07T04:08:31;2.55;;;0.60;;
62997;SDS011;55949;52.590;7.330;2022-12-07T04:09:31;3.55;;;1.50;;
62997;SDS011;55949;52.590;7.330;2022-12-07T04:10:32;3.15;;;0.60;;
62997;SDS011;55949;52.590;7.330;2022-12-07T04:11:33;8.43;;;1.08;;
62997;SDS011;55949;52.590;7.330;2022-12-07T04:12:34;6.03;;;1.02;;
62997;SDS011;55949;52.590;7.330;2022-12-07T04:13:34;2.58;;;0.35;;
62997;SDS011;55949;52.590;7.330;2022-12-07T04:14:55;7.95;;;1.27;;
62997;SDS011;55949;52.590;7.330;2022-12-07T04:15:56;4.20;;;0.88;;
62997;SDS011;55949;52.590;7.330;2022-12-07T04:16:57;4.55;;;1.00;;
62997;SDS011;55949;52.590;7.330;2022-12-07T04:17:58;5.35;;;0.90;;
62997;SDS011;55949;52.590;7.330;2022-12-07T04:18:59;4.03;;;0.93;;
62997;SDS011;55949;52.590;7.330;2022-12-07T04:20:00;4.60;;;1.00;;
62997;SDS011;55949;52.590;7.330;2022-12-07T04:21:00;5.07;;;0.65;;
62997;SDS011;55949;52.590;7.330;2022-12-07T04:22:02;2.03;;;0.77;;
62997;SDS011;55949;52.590;7.330;2022-12-07T04:23:03;1.70;;;0.57;;
62997;SDS011;55949;52.590;7.330;2022-12-07T04:24:04;6.22;;;0.73;;
62997;SDS011;55949;52.590;7.330;2022-12-07T04:25:05;2.90;;;0.60;;
62997;SDS011;55949;52.590;7.330;2022-12-07T04:26:06;4.47;;;1.20;;
62997;SDS011;55949;52.590;7.330;2022-12-07T04:27:07;4.60;;;0.98;;
62997;SDS011;55949;52.590;7.330;2022-12-07T04:28:08;2.10;;;0.82;;
62997;SDS011;55949;52.590;7.330;2022-12-07T04:29:09;3.17;;;0.75;;
62997;SDS011;55949;52.590;7.330;2022-12-07T04:30:10;5.38;;;1.02;;
62997;SDS011;55949;52.590;7.330;2022-12-07T04:31:11;3.72;;;0.70;;
62997;SDS011;55949;52.590;7.330;2022-12-07T04:32:12;7.22;;;1.00;;
62997;SDS011;55949;52.590;7.330;2022-12-07T04:33:12;6.80;;;0.85;;
62997;SDS011;55949;52.590;7.330;2022-12-07T04:34:13;2.60;;;0.65;;
62997;SDS011;55949;52.590;7.330;2022-12-07T04:35:14;4.90;;;0.95;;
62997;SDS011;55949;52.590;7.330;2022-12-07T04:36:15;5.78;;;0.60;;
62997;SDS011;55949;52.590;7.330;2022-12-07T04:37:16;0.60;;;0.30;;
62997;SDS011;55949;52.590;7.330;2022-12-07T04:38:17;7.57;;;1.17;;
62997;SDS011;55949;52.590;7.330;2022-12-07T04:39:20;4.43;;;1.10;;
62997;SDS011;55949;52.590;7.330;2022-12-07T04:40:22;1.10;;;0.40;;
62997;SDS011;55949;52.590;7.330;2022-12-07T04:41:23;7.53;;;0.65;;
62997;SDS011;55949;52.590;7.330;2022-12-07T04:42:27;7.22;;;0.95;;
62997;SDS011;55949;52.590;7.330;2022-12-07T04:43:28;2.92;;;0.75;;
62997;SDS011;55949;52.590;7.330;2022-12-07T04:44:29;4.90;;;0.60;;
62997;SDS011;55949;52.590;7.330;2022-12-07T04:45:30;5.05;;;1.08;;
62997;SDS011;55949;52.590;7.330;2022-12-07T04:46:31;2.90;;;0.88;;
62997;SDS011;55949;52.590;7.330;2022-12-07T04:47:32;5.25;;;1.10;;
62997;SDS011;55949;52.590;7.330;2022-12-07T04:48:33;3.35;;;0.57;;
62997;SDS011;55949;52.590;7.330;2022-12-07T04:49:33;5.00;;;0.90;;
62997;SDS011;55949;52.590;7.330;2022-12-07T04:50:35;8.95;;;1.08;;
62997;SDS011;55949;52.590;7.330;2022-12-07T04:51:38;2.25;;;0.65;;
62997;SDS011;55949;52.590;7.330;2022-12-07T04:52:38;10.55;;;1.48;;
62997;SDS011;55949;52.590;7.330;2022-12-07T04:53:39;2.53;;;0.70;;
62997;SDS011;55949;52.590;7.330;2022-12-07T04:54:40;5.93;;;1.77;;
62997;SDS011;55949;52.590;7.330;2022-12-07T04:55:41;2.65;;;0.93;;
62997;SDS011;55949;52.590;7.330;2022-12-07T04:56:42;2.97;;;0.55;;
62997;SDS011;55949;52.590;7.330;2022-12-07T04:57:43;1.73;;;0.43;;
62997;SDS011;55949;52.590;7.330;2022-12-07T04:58:44;9.00;;;1.08;;
62997;SDS011;55949;52.590;7.330;2022-12-07T04:59:46;6.40;;;0.98;;
62997;SDS011;55949;52.590;7.330;2022-12-07T05:00:47;5.10;;;1.23;;
62997;SDS011;55949;52.590;7.330;2022-12-07T05:01:47;4.65;;;0.90;;
62997;SDS011;55949;52.590;7.330;2022-12-07T05:02:48;4.47;;;1.23;;
62997;SDS011;55949;52.590;7.330;2022-12-07T05:03:49;2.28;;;0.68;;
62997;SDS011;55949;52.590;7.330;2022-12-07T05:04:50;4.18;;;0.68;;
62997;SDS011;55949;52.590;7.330;2022-12-07T05:05:51;4.78;;;0.70;;
62997;SDS011;55949;52.590;7.330;2022-12-07T05:06:51;5.15;;;0.55;;
62997;SDS011;55949;52.590;7.330;2022-12-07T05:07:52;6.80;;;1.50;;
62997;SDS011;55949;52.590;7.330;2022-12-07T05:08:53;2.47;;;0.68;;
62997;SDS011;55949;52.590;7.330;2022-12-07T05:09:54;4.50;;;0.88;;
62997;SDS011;55949;52.590;7.330;2022-12-07T05:10:55;4.93;;;0.70;;
62997;SDS011;55949;52.590;7.330;2022-12-07T05:11:56;3.90;;;1.00;;
62997;SDS011;55949;52.590;7.330;2022-12-07T05:12:56;9.27;;;0.70;;
62997;SDS011;55949;52.590;7.330;2022-12-07T05:13:57;3.35;;;1.02;;
62997;SDS011;55949;52.590;7.330;2022-12-07T05:14:59;1.88;;;0.30;;
62997;SDS011;55949;52.590;7.330;2022-12-07T05:15:59;4.13;;;0.65;;
62997;SDS011;55949;52.590;7.330;2022-12-07T05:17:00;4.88;;;0.80;;
62997;SDS011;55949;52.590;7.330;2022-12-07T05:18:01;4.47;;;0.63;;
62997;SDS011;55949;52.590;7.330;2022-12-07T05:19:03;2.78;;;0.60;;
62997;SDS011;55949;52.590;7.330;2022-12-07T05:20:05;2.60;;;0.47;;
62997;SDS011;55949;52.590;7.330;2022-12-07T05:21:06;3.65;;;0.70;;
62997;SDS011;55949;52.590;7.330;2022-12-07T05:22:07;5.60;;;0.47;;
62997;SDS011;55949;52.590;7.330;2022-12-07T05:23:08;3.08;;;0.65;;
62997;SDS011;55949;52.590;7.330;2022-12-07T05:24:10;5.05;;;0.50;;
62997;SDS011;55949;52.590;7.330;2022-12-07T05:25:11;0.88;;;0.73;;
62997;SDS011;55949;52.590;7.330;2022-12-07T05:26:12;3.85;;;0.70;;
62997;SDS011;55949;52.590;7.330;2022-12-07T05:27:13;8.60;;;0.90;;
62997;SDS011;55949;52.590;7.330;2022-12-07T05:28:14;6.10;;;0.68;;
62997;SDS011;55949;52.590;7.330;2022-12-07T05:29:15;5.28;;;0.50;;
62997;SDS011;55949;52.590;7.330;2022-12-07T05:30:17;3.78;;;0.50;;
62997;SDS011;55949;52.590;7.330;2022-12-07T05:31:17;3.90;;;0.60;;
62997;SDS011;55949;52.590;7.330;2022-12-07T05:32:18;2.70;;;0.25;;
62997;SDS011;55949;52.590;7.330;2022-12-07T05:33:19;3.35;;;0.47;;
62997;SDS011;55949;52.590;7.330;2022-12-07T05:34:20;2.03;;;0.70;;
62997;SDS011;55949;52.590;7.330;2022-12-07T05:35:21;3.38;;;0.57;;
62997;SDS011;55949;52.590;7.330;2022-12-07T05:36:21;2.42;;;0.47;;
62997;SDS011;55949;52.590;7.330;2022-12-07T05:37:23;4.47;;;1.30;;
62997;SDS011;55949;52.590;7.330;2022-12-07T05:38:23;3.17;;;0.70;;
62997;SDS011;55949;52.590;7.330;2022-12-07T05:39:25;1.55;;;0.35;;
62997;SDS011;55949;52.590;7.330;2022-12-07T05:40:25;8.60;;;0.60;;
62997;SDS011;55949;52.590;7.330;2022-12-07T05:41:26;5.03;;;0.55;;
62997;SDS011;55949;52.590;7.330;2022-12-07T05:42:46;5.57;;;1.08;;
62997;SDS011;55949;52.590;7.330;2022-12-07T05:43:46;2.22;;;0.52;;
62997;SDS011;55949;52.590;7.330;2022-12-07T05:44:47;8.77;;;1.05;;
62997;SDS011;55949;52.590;7.330;2022-12-07T05:45:48;1.15;;;0.43;;
62997;SDS011;55949;52.590;7.330;2022-12-07T05:46:48;6.97;;;0.63;;
62997;SDS011;55949;52.590;7.330;2022-12-07T05:47:49;5.97;;;0.90;;
62997;SDS011;55949;52.590;7.330;2022-12-07T05:48:50;2.38;;;0.60;;
62997;SDS011;55949;52.590;7.330;2022-12-07T05:49:51;4.00;;;0.60;;
62997;SDS011;55949;52.590;7.330;2022-12-07T05:50:52;4.07;;;1.08;;
62997;SDS011;55949;52.590;7.330;2022-12-07T05:51:53;3.13;;;0.47;;
62997;SDS011;55949;52.590;7.330;2022-12-07T05:52:53;4.10;;;0.43;;
62997;SDS011;55949;52.590;7.330;2022-12-07T05:53:54;2.13;;;0.60;;
62997;SDS011;55949;52.590;7.330;2022-12-07T05:54:55;0.85;;;0.47;;
62997;SDS011;55949;52.590;7.330;2022-12-07T05:55:56;3.08;;;0.88;;
62997;SDS011;55949;52.590;7.330;2022-12-07T05:56:57;3.75;;;0.68;;
62997;SDS011;55949;52.590;7.330;2022-12-07T05:57:57;0.95;;;0.30;;
62997;SDS011;55949;52.590;7.330;2022-12-07T05:59:17;0.77;;;0.60;;
62997;SDS011;55949;52.590;7.330;2022-12-07T06:00:24;4.38;;;0.50;;
62997;SDS011;55949;52.590;7.330;2022-12-07T06:01:24;4.63;;;1.02;;
62997;SDS011;55949;52.590;7.330;2022-12-07T06:02:25;3.13;;;0.75;;
62997;SDS011;55949;52.590;7.330;2022-12-07T06:03:26;4.72;;;0.57;;
62997;SDS011;55949;52.590;7.330;2022-12-07T06:04:29;4.95;;;0.95;;
62997;SDS011;55949;52.590;7.330;2022-12-07T06:05:31;2.60;;;0.60;;
62997;SDS011;55949;52.590;7.330;2022-12-07T06:06:31;1.25;;;0.60;;
62997;SDS011;55949;52.590;7.330;2022-12-07T06:07:32;2.00;;;0.73;;
62997;SDS011;55949;52.590;7.330;2022-12-07T06:08:33;2.55;;;1.48;;
62997;SDS011;55949;52.590;7.330;2022-12-07T06:09:34;2.97;;;0.52;;
62997;SDS011;55949;52.590;7.330;2022-12-07T06:10:35;8.88;;;1.02;;
62997;SDS011;55949;52.590;7.330;2022-12-07T06:11:36;1.65;;;0.52;;
62997;SDS011;55949;52.590;7.330;2022-12-07T06:12:55;1.30;;;0.63;;
62997;SDS011;55949;52.590;7.330;2022-12-07T06:13:56;3.80;;;1.58;;
62997;SDS011;55949;52.590;7.330;2022-12-07T06:14:56;2.22;;;0.50;;
62997;SDS011;55949;52.590;7.330;2022-12-07T06:15:57;3.80;;;0.40;;
62997;SDS011;55949;52.590;7.330;2022-12-07T06:16:58;6.43;;;0.82;;
62997;SDS011;55949;52.590;7.330;2022-12-07T06:17:59;1.70;;;0.60;;
62997;SDS011;55949;52.590;7.330;2022-12-07T06:19:00;3.65;;;0.20;;
62997;SDS011;55949;52.590;7.330;2022-12-07T06:20:01;2.05;;;0.80;;
62997;SDS011;55949;52.590;7.330;2022-12-07T06:21:02;1.85;;;0.28;;
62997;SDS011;55949;52.590;7.330;2022-12-07T06:22:04;4.38;;;0.60;;
62997;SDS011;55949;52.590;7.330;2022-12-07T06:23:05;4.35;;;0.55;;
62997;SDS011;55949;52.590;7.330;2022-12-07T06:24:06;0.85;;;0.52;;
62997;SDS011;55949;52.590;7.330;2022-12-07T06:25:07;4.32;;;1.10;;
62997;SDS011;55949;52.590;7.330;2022-12-07T06:26:08;0.70;;;0.55;;
62997;SDS011;55949;52.590;7.330;2022-12-07T06:27:09;4.75;;;0.70;;
62997;SDS011;55949;52.590;7.330;2022-12-07T06:28:10;3.92;;;0.40;;
62997;SDS011;55949;52.590;7.330;2022-12-07T06:29:11;3.28;;;0.73;;
62997;SDS011;55949;52.590;7.330;2022-12-07T06:30:12;4.30;;;0.60;;
62997;SDS011;55949;52.590;7.330;2022-12-07T06:31:14;3.10;;;0.45;;
62997;SDS011;55949;52.590;7.330;2022-12-07T06:32:15;3.13;;;0.63;;
62997;SDS011;55949;52.590;7.330;2022-12-07T06:33:16;2.13;;;0.60;;
62997;SDS011;55949;52.590;7.330;2022-12-07T06:34:18;0.28;;;0.20;;
62997;SDS011;55949;52.590;7.330;2022-12-07T06:35:20;3.28;;;1.10;;
62997;SDS011;55949;52.590;7.330;2022-12-07T06:36:20;5.05;;;0.55;;
62997;SDS011;55949;52.590;7.330;2022-12-07T06:37:21;5.05;;;0.40;;
62997;SDS011;55949;52.590;7.330;2022-12-07T06:38:22;3.53;;;0.82;;
62997;SDS011;55949;52.590;7.330;2022-12-07T06:39:24;3.67;;;0.50;;
62997;SDS011;55949;52.590;7.330;2022-12-07T06:40:30;1.25;;;0.38;;
62997;SDS011;55949;52.590;7.330;2022-12-07T06:41:30;2.35;;;0.50;;
62997;SDS011;55949;52.590;7.330;2022-12-07T06:42:31;1.40;;;0.40;;
62997;SDS011;55949;52.590;7.330;2022-12-07T06:43:32;5.60;;;1.58;;
62997;SDS011;55949;52.590;7.330;2022-12-07T06:44:33;3.88;;;0.40;;
62997;SDS011;55949;52.590;7.330;2022-12-07T06:45:34;4.55;;;0.55;;
62997;SDS011;55949;52.590;7.330;2022-12-07T06:46:35;7.50;;;0.50;;
62997;SDS011;55949;52.590;7.330;2022-12-07T06:47:35;1.33;;;0.32;;
62997;SDS011;55949;52.590;7.330;2022-12-07T06:48:36;5.15;;;0.75;;
62997;SDS011;55949;52.590;7.330;2022-12-07T06:49:37;1.95;;;0.75;;
62997;SDS011;55949;52.590;7.330;2022-12-07T06:50:38;2.15;;;0.68;;